Time;durP1;ratioP1;P1;durP2;ratioP2;P2;SDS_P1;SDS_P2;PMS_P1;PMS_P2;Temp;Humidity;BMP_temperature;BMP_pressure;BME280_temperature;BME280_humidity;BME280_pressure;Samples;Min_cycle;Max_cycle;Signal;HPM_P1;HPM_P2
2021/12/17 00:02:08;;;;;;;14.55;8.60;;;;;;;;;;6342382;28;20040;-63
2021/12/17 00:05:03;;;;;;;13.48;8.05;;;;;;;;;;6341932;28;20424;-61
2021/12/17 00:08:09;;;;;;;14.45;8.20;;;;;;;;;;6358442;27;20047;-61
2021/12/17 00:11:15;;;;;;;15.43;8.57;;;;;;;;;;6358003;27;20051;-61
2021/12/17 00:14:26;;;;;;;15.27;8.55;;;;;;;;;;6358419;27;20047;-61
2021/12/17 00:17:33;;;;;;;12.52;7.93;;;;;;;;;;6342828;28;20048;-60
2021/12/17 00:51:16;;;;;;;11.20;6.97;;;;;;;;;;6340668;28;20044;-60
2021/12/17 00:54:22;;;;;;;8.35;5.57;;;;;;;;;;6341100;28;20059;-60
2021/12/17 00:57:33;;;;;;;10.50;6.30;;;;;;;;;;6342063;28;20059;-60
2021/12/17 01:00:40;;;;;;;11.32;5.93;;;;;;;;;;6340817;28;20044;-60
2021/12/17 01:03:47;;;;;;;9.35;5.38;;;;;;;;;;6357064;28;20453;-62
2021/12/17 01:06:51;;;;;;;8.77;5.47;;;;;;;;;;6339253;28;20051;-60
2021/12/17 01:09:54;;;;;;;6.63;4.65;;;;;;;;;;6341067;28;20088;-60
2021/12/17 01:13:00;;;;;;;9.10;4.75;;;;;;;;;;6358196;28;20059;-60
2021/12/17 01:16:23;;;;;;;7.72;4.90;;;;;;;;;;6341499;28;20504;-60
2021/12/17 01:20:09;;;;;;;18.33;5.85;;;;;;;;;;6340150;28;20055;-61
2021/12/17 01:23:30;;;;;;;10.45;5.50;;;;;;;;;;6357713;28;20073;-61
2021/12/17 01:41:46;;;;;;;7.03;4.28;;;;;;;;;;6339604;28;20050;-60
2021/12/17 01:44:49;;;;;;;7.78;4.30;;;;;;;;;;6357689;28;20181;-61
2021/12/17 01:47:54;;;;;;;7.80;4.68;;;;;;;;;;6357844;28;20052;-61
2021/12/17 02:01:26;;;;;;;7.18;4.47;;;;;;;;;;6340554;28;20738;-61
2021/12/17 02:04:33;;;;;;;7.15;4.50;;;;;;;;;;6357279;28;20051;-61
2021/12/17 02:07:38;;;;;;;9.40;4.35;;;;;;;;;;6356513;28;20047;-61
2021/12/17 02:31:08;;;;;;;7.53;4.35;;;;;;;;;;6344600;28;20048;-60
2021/12/17 02:34:27;;;;;;;6.80;3.50;;;;;;;;;;6360735;27;20044;-60
2021/12/17 02:37:33;;;;;;;7.03;3.88;;;;;;;;;;6360568;27;20052;-60
2021/12/17 02:47:58;;;;;;;7.65;3.78;;;;;;;;;;6343796;28;20486;-62
2021/12/17 02:51:01;;;;;;;5.90;3.15;;;;;;;;;;6342905;28;20057;-61
2021/12/17 02:54:06;;;;;;;6.18;3.30;;;;;;;;;;6343679;28;20048;-62
2021/12/17 02:57:10;;;;;;;8.38;3.65;;;;;;;;;;6345375;27;20048;-61
2021/12/17 03:00:19;;;;;;;9.93;4.18;;;;;;;;;;6360137;27;20047;-61
2021/12/17 03:03:44;;;;;;;7.30;3.63;;;;;;;;;;6342530;28;20105;-61
2021/12/17 03:06:48;;;;;;;8.40;4.33;;;;;;;;;;6343629;28;20410;-60
2021/12/17 03:10:03;;;;;;;10.15;3.90;;;;;;;;;;6360747;27;20442;-60
2021/12/17 03:13:06;;;;;;;10.73;4.05;;;;;;;;;;6359789;27;20047;-60
2021/12/17 03:16:14;;;;;;;8.32;4.10;;;;;;;;;;6359842;27;20047;-60
2021/12/17 03:23:24;;;;;;;6.57;3.88;;;;;;;;;;6344745;28;20137;-60
2021/12/17 03:26:12;;;;;;;6.38;3.80;;;;;;;;;;6342343;28;20051;-60
2021/12/17 03:29:15;;;;;;;11.20;4.40;;;;;;;;;;6343730;28;20050;-61
2021/12/17 03:32:22;;;;;;;13.07;4.82;;;;;;;;;;6360611;27;20047;-61
2021/12/17 03:35:25;;;;;;;8.13;4.00;;;;;;;;;;6359956;27;20130;-60
2021/12/17 03:38:29;;;;;;;9.30;4.22;;;;;;;;;;6342997;28;20104;-60
2021/12/17 03:41:37;;;;;;;6.40;3.95;;;;;;;;;;6343862;28;20457;-60
2021/12/17 03:44:44;;;;;;;9.02;4.45;;;;;;;;;;6342789;28;20043;-60
2021/12/17 03:48:13;;;;;;;10.30;5.05;;;;;;;;;;6341215;28;20070;-60
2021/12/17 03:51:18;;;;;;;8.27;4.30;;;;;;;;;;6358512;27;20046;-60
2021/12/17 03:54:22;;;;;;;9.00;4.78;;;;;;;;;;6342524;28;20740;-61
2021/12/17 03:57:28;;;;;;;11.77;5.40;;;;;;;;;;6359383;27;20055;-60
2021/12/17 04:00:32;;;;;;;10.07;5.43;;;;;;;;;;6341302;28;20051;-60
2021/12/17 04:03:38;;;;;;;13.80;6.25;;;;;;;;;;6358498;27;20082;-60
2021/12/17 04:06:49;;;;;;;14.02;7.07;;;;;;;;;;6359482;27;20044;-61
2021/12/17 04:10:22;;;;;;;11.02;6.32;;;;;;;;;;6359244;27;20048;-61
2021/12/17 04:13:33;;;;;;;14.40;7.10;;;;;;;;;;6358154;27;20048;-61
2021/12/17 04:16:39;;;;;;;15.80;7.63;;;;;;;;;;6358448;27;20044;-61
2021/12/17 04:19:45;;;;;;;15.32;8.10;;;;;;;;;;6359222;27;20046;-61
2021/12/17 04:22:48;;;;;;;14.88;7.53;;;;;;;;;;6358345;27;20043;-61
2021/12/17 04:25:52;;;;;;;14.85;8.38;;;;;;;;;;6358206;27;20047;-61
2021/12/17 04:28:57;;;;;;;13.82;7.63;;;;;;;;;;6358766;27;20434;-61
2021/12/17 04:32:06;;;;;;;16.23;8.07;;;;;;;;;;6358818;27;20051;-61
2021/12/17 04:35:10;;;;;;;16.95;8.35;;;;;;;;;;6340153;28;20043;-61
2021/12/17 04:38:22;;;;;;;14.38;8.30;;;;;;;;;;6358043;27;20047;-61
2021/12/17 04:41:50;;;;;;;15.30;8.02;;;;;;;;;;6358657;27;20048;-61
2021/12/17 04:44:57;;;;;;;16.17;8.23;;;;;;;;;;6341285;28;20047;-61
2021/12/17 04:58:12;;;;;;;14.40;6.40;;;;;;;;;;6341309;28;20051;-61
2021/12/17 05:01:17;;;;;;;8.52;4.70;;;;;;;;;;6357474;28;20043;-61
2021/12/17 05:04:22;;;;;;;13.40;5.25;;;;;;;;;;6357282;28;20426;-60
2021/12/17 05:07:28;;;;;;;9.40;4.50;;;;;;;;;;6358314;28;20052;-61
2021/12/17 05:10:49;;;;;;;11.95;4.95;;;;;;;;;;6357730;28;20044;-61
2021/12/17 05:20:45;;;;;;;10.82;4.22;;;;;;;;;;6341149;28;20047;-61
2021/12/17 05:23:51;;;;;;;8.73;3.88;;;;;;;;;;6357772;28;20059;-60
2021/12/17 05:26:56;;;;;;;8.88;3.90;;;;;;;;;;6356986;28;20067;-60
2021/12/17 05:30:04;;;;;;;8.90;3.60;;;;;;;;;;6357850;28;20588;-60
2021/12/17 05:33:09;;;;;;;6.95;3.72;;;;;;;;;;6340879;28;20486;-60
2021/12/17 05:36:12;;;;;;;11.50;4.43;;;;;;;;;;6340041;28;20153;-60
2021/12/17 05:39:26;;;;;;;9.95;4.15;;;;;;;;;;6356812;28;20043;-60
2021/12/17 05:42:31;;;;;;;11.77;5.00;;;;;;;;;;6341471;28;20043;-60
2021/12/17 05:46:01;;;;;;;10.18;5.18;;;;;;;;;;6357709;28;20252;-59
2021/12/17 05:49:06;;;;;;;9.85;5.05;;;;;;;;;;6344569;28;20051;-61
2021/12/17 05:52:11;;;;;;;13.40;5.75;;;;;;;;;;6344523;28;20039;-61
2021/12/17 05:55:14;;;;;;;13.73;5.50;;;;;;;;;;6346575;28;20100;-61
2021/12/17 05:58:18;;;;;;;9.57;5.40;;;;;;;;;;6361906;27;20062;-60
2021/12/17 06:01:22;;;;;;;11.00;5.72;;;;;;;;;;6361067;27;20036;-61
2021/12/17 06:04:29;;;;;;;10.98;5.35;;;;;;;;;;6361753;27;20401;-60
2021/12/17 06:07:37;;;;;;;10.10;5.68;;;;;;;;;;6362214;27;20183;-62
2021/12/17 06:10:43;;;;;;;11.18;5.50;;;;;;;;;;6360995;27;20508;-60
2021/12/17 06:13:47;;;;;;;13.38;5.72;;;;;;;;;;6343956;28;20062;-60
2021/12/17 06:16:50;;;;;;;12.40;5.55;;;;;;;;;;6361807;27;20043;-60
2021/12/17 06:20:07;;;;;;;10.68;5.47;;;;;;;;;;6361587;27;20040;-60
2021/12/17 06:23:13;;;;;;;13.55;6.88;;;;;;;;;;6343630;28;20428;-60
2021/12/17 06:26:16;;;;;;;10.80;5.63;;;;;;;;;;6344061;28;20047;-60
2021/12/17 06:29:22;;;;;;;;;;;;;;;;;;6362377;27;20051;-62
2021/12/17 06:32:32;;;;;;;10.50;5.68;;;;;;;;;;6343826;28;19972;-61
2021/12/17 06:35:37;;;;;;;12.15;5.68;;;;;;;;;;6343121;28;20444;-60
2021/12/17 06:38:40;;;;;;;12.90;5.38;;;;;;;;;;6361343;27;20047;-60
2021/12/17 06:41:44;;;;;;;11.40;6.15;;;;;;;;;;6345205;28;20047;-60
2021/12/17 06:44:48;;;;;;;10.60;5.47;;;;;;;;;;6342968;28;20461;-61
2021/12/17 06:47:57;;;;;;;14.53;6.13;;;;;;;;;;6361013;27;20059;-61
2021/12/17 06:54:48;;;;;;;12.88;5.60;;;;;;;;;;6343409;28;20047;-61
2021/12/17 07:22:47;;;;;;;11.70;5.68;;;;;;;;;;6342831;28;20078;-60
2021/12/17 07:33:13;;;;;;;9.38;5.60;;;;;;;;;;6343934;28;20073;-61
2021/12/17 07:36:42;;;;;;;10.07;4.72;;;;;;;;;;6342103;28;20043;-62
2021/12/17 07:39:45;;;;;;;11.75;5.00;;;;;;;;;;6359420;27;20066;-62
2021/12/17 07:43:02;;;;;;;8.15;4.85;;;;;;;;;;6359824;27;20055;-61
2021/12/17 07:46:25;;;;;;;9.75;5.10;;;;;;;;;;6359282;27;20071;-61
2021/12/17 07:49:30;;;;;;;9.18;4.75;;;;;;;;;;6358520;27;20047;-61
2021/12/17 07:52:35;;;;;;;11.45;5.15;;;;;;;;;;6359724;27;20059;-61
2021/12/17 07:55:39;;;;;;;11.07;5.40;;;;;;;;;;6359565;27;20055;-62
2021/12/17 07:58:46;;;;;;;12.13;5.53;;;;;;;;;;6358679;27;20081;-61
2021/12/17 08:01:49;;;;;;;8.88;4.85;;;;;;;;;;6356917;27;20413;-61
2021/12/17 08:04:54;;;;;;;8.70;5.35;;;;;;;;;;6341187;28;20047;-61
2021/12/17 08:07:58;;;;;;;11.27;5.10;;;;;;;;;;6340801;28;20096;-61
2021/12/17 08:11:01;;;;;;;11.70;4.93;;;;;;;;;;6357341;27;20119;-61
2021/12/17 08:14:11;;;;;;;8.83;5.47;;;;;;;;;;6359017;27;20044;-61
2021/12/17 08:17:34;;;;;;;11.15;4.57;;;;;;;;;;6358879;27;20284;-62
2021/12/17 08:27:45;;;;;;;10.75;4.28;;;;;;;;;;6340443;28;20047;-62
2021/12/17 08:30:51;;;;;;;11.35;4.70;;;;;;;;;;6358429;27;20056;-61
2021/12/17 08:33:59;;;;;;;9.80;4.13;;;;;;;;;;6357615;27;20405;-61
2021/12/17 08:37:03;;;;;;;8.38;3.90;;;;;;;;;;6357294;27;20482;-61
2021/12/17 08:40:07;;;;;;;8.27;4.40;;;;;;;;;;6341138;28;20053;-61
2021/12/17 08:43:26;;;;;;;12.20;4.53;;;;;;;;;;6340654;28;20093;-62
2021/12/17 08:46:32;;;;;;;9.80;5.05;;;;;;;;;;6357321;27;20062;-61
2021/12/17 08:49:50;;;;;;;11.45;5.20;;;;;;;;;;6357567;27;20058;-62
2021/12/17 08:52:57;;;;;;;97.25;46.03;;;;;;;;;;6357683;27;20043;-62
2021/12/17 08:56:00;;;;;;;9.88;4.88;;;;;;;;;;6357588;27;20058;-62
2021/12/17 08:59:05;;;;;;;10.77;5.03;;;;;;;;;;6356487;27;20054;-62
2021/12/17 09:02:36;;;;;;;9.60;5.03;;;;;;;;;;6340556;28;20067;-61
2021/12/17 09:06:03;;;;;;;10.07;4.80;;;;;;;;;;6341894;28;20055;-61
2021/12/17 09:09:17;;;;;;;11.82;4.60;;;;;;;;;;6340539;28;20043;-61
2021/12/17 09:12:21;;;;;;;8.77;4.55;;;;;;;;;;6356885;28;20052;-61
2021/12/17 09:15:28;;;;;;;10.05;4.75;;;;;;;;;;6356797;28;20050;-61
2021/12/17 09:18:41;;;;;;;10.45;4.70;;;;;;;;;;6341852;28;20630;-61
2021/12/17 09:22:13;;;;;;;9.70;4.72;;;;;;;;;;6337145;28;20044;-61
2021/12/17 09:25:23;;;;;;;11.10;4.45;;;;;;;;;;6361987;27;20490;-62
2021/12/17 09:28:31;;;;;;;;;;;;;;;;;;6362535;27;20051;-60
2021/12/17 09:31:36;;;;;;;12.73;5.05;;;;;;;;;;6346687;28;19934;-62
2021/12/17 09:34:40;;;;;;;10.90;4.50;;;;;;;;;;6361827;27;20127;-61
2021/12/17 09:37:43;;;;;;;8.65;4.45;;;;;;;;;;6345596;28;20405;-59
2021/12/17 09:40:46;;;;;;;9.27;4.80;;;;;;;;;;6346479;28;20064;-60
2021/12/17 09:43:52;;;;;;;8.75;4.68;;;;;;;;;;6344828;28;20058;-60
2021/12/17 09:46:57;;;;;;;10.18;4.47;;;;;;;;;;6344243;28;20090;-60
2021/12/17 09:50:02;;;;;;;9.07;5.23;;;;;;;;;;6361268;27;20501;-60
2021/12/17 09:53:07;;;;;;;9.30;4.88;;;;;;;;;;6346704;28;20510;-60
2021/12/17 09:56:13;;;;;;;11.75;3.95;;;;;;;;;;6361757;27;20043;-60
2021/12/17 09:59:16;;;;;;;8.05;3.70;;;;;;;;;;6360936;27;20047;-60
2021/12/17 10:02:19;;;;;;;10.70;4.35;;;;;;;;;;6345871;28;20047;-59
2021/12/17 10:05:25;;;;;;;6.82;4.10;;;;;;;;;;6345689;28;20128;-60
2021/12/17 10:08:28;;;;;;;;;;;;;;;;;;6345890;28;20051;-62
2021/12/17 10:11:31;;;;;;;8.15;3.65;;;;;;;;;;6344883;28;19920;-61
2021/12/17 10:14:34;;;;;;;17.92;8.88;;;;;;;;;;6345704;28;20474;-60
2021/12/17 10:17:37;;;;;;;10.95;4.20;;;;;;;;;;6343618;28;20787;-60
2021/12/17 10:20:43;;;;;;;10.70;4.43;;;;;;;;;;6344893;28;20070;-60
2021/12/17 10:23:47;;;;;;;9.38;3.70;;;;;;;;;;6345118;28;20047;-60
2021/12/17 10:26:50;;;;;;;7.55;3.60;;;;;;;;;;6345073;28;20089;-61
2021/12/17 10:29:53;;;;;;;10.60;4.53;;;;;;;;;;6345060;28;20078;-61
2021/12/17 10:32:57;;;;;;;10.82;4.40;;;;;;;;;;6359498;27;20043;-61
2021/12/17 10:36:03;;;;;;;9.57;3.75;;;;;;;;;;6343938;28;20509;-60
2021/12/17 10:39:06;;;;;;;;;;;;;;;;;;6344987;28;20044;-60
2021/12/17 10:42:17;;;;;;;9.63;3.42;;;;;;;;;;6344541;28;19920;-60
2021/12/17 10:45:25;;;;;;;9.73;3.95;;;;;;;;;;6344778;28;20046;-61
2021/12/17 10:48:33;;;;;;;7.13;4.05;;;;;;;;;;6343694;28;20043;-60
2021/12/17 10:51:47;;;;;;;8.38;4.10;;;;;;;;;;6344033;28;20059;-60
2021/12/17 10:55:06;;;;;;;15.52;4.80;;;;;;;;;;6343886;28;20046;-60
2021/12/17 10:58:10;;;;;;;11.07;4.55;;;;;;;;;;6343496;28;20055;-60
2021/12/17 11:01:12;;;;;;;8.07;3.97;;;;;;;;;;6344487;28;20558;-60
2021/12/17 11:04:18;;;;;;;7.53;4.38;;;;;;;;;;6359378;27;20066;-60
2021/12/17 11:07:21;;;;;;;;;;;;;;;;;;6360458;27;20050;-60
2021/12/17 11:10:32;;;;;;;6.82;3.53;;;;;;;;;;6344355;28;19920;-60
2021/12/17 11:13:35;;;;;;;8.75;3.97;;;;;;;;;;6341913;28;20035;-60
2021/12/17 11:16:39;;;;;;;9.65;3.80;;;;;;;;;;6343765;28;20051;-60
2021/12/17 11:19:43;;;;;;;7.70;3.70;;;;;;;;;;6359961;27;20043;-60
2021/12/17 11:22:47;;;;;;;9.18;3.80;;;;;;;;;;6343337;28;20047;-60
2021/12/17 11:25:56;;;;;;;9.77;3.83;;;;;;;;;;6359052;27;20052;-60
2021/12/17 11:29:03;;;;;;;7.07;3.78;;;;;;;;;;6342413;28;20478;-60
2021/12/17 11:32:06;;;;;;;9.60;4.10;;;;;;;;;;6342457;28;20047;-60
2021/12/17 11:35:15;;;;;;;6.63;3.35;;;;;;;;;;6341448;28;20490;-60
2021/12/17 11:38:20;;;;;;;8.20;3.65;;;;;;;;;;6343081;28;20124;-60
2021/12/17 11:41:35;;;;;;;10.50;4.07;;;;;;;;;;6343610;28;20097;-60
2021/12/17 11:44:42;;;;;;;8.80;3.50;;;;;;;;;;6342067;28;20160;-60
2021/12/17 11:47:45;;;;;;;9.90;3.65;;;;;;;;;;6341549;28;20040;-60
2021/12/17 11:51:03;;;;;;;7.78;3.20;;;;;;;;;;6341914;28;20048;-61
2021/12/17 11:54:08;;;;;;;7.90;3.08;;;;;;;;;;6341923;27;20044;-60
2021/12/17 11:57:17;;;;;;;9.93;3.65;;;;;;;;;;6342621;28;20051;-60
2021/12/17 12:00:24;;;;;;;8.40;3.65;;;;;;;;;;6358246;27;20047;-60
2021/12/17 12:03:27;;;;;;;9.82;3.83;;;;;;;;;;6341167;28;20051;-61
2021/12/17 12:06:34;;;;;;;9.98;3.58;;;;;;;;;;6355583;27;20047;-61
2021/12/17 12:09:54;;;;;;;4.20;2.58;;;;;;;;;;6336762;28;20047;-60
2021/12/17 12:43:51;;;;;;;8.05;3.50;;;;;;;;;;7835655;22;1406590;-59
2021/12/17 12:46:56;;;;;;;7.97;3.23;;;;;;;;;;7849373;22;20011;-59
2021/12/17 12:50:07;;;;;;;10.70;3.50;;;;;;;;;;7876841;22;20022;-59
2021/12/17 12:53:11;;;;;;;9.60;3.03;;;;;;;;;;7888555;22;20010;-59
2021/12/17 12:56:20;;;;;;;8.77;2.78;;;;;;;;;;7889495;22;20087;-59
2021/12/17 12:59:25;;;;;;;9.75;4.53;;;;;;;;;;7889928;22;20010;-59
2021/12/17 13:02:28;;;;;;;8.15;3.42;;;;;;;;;;7882208;22;20442;-60
2021/12/17 13:05:32;;;;;;;7.00;2.90;;;;;;;;;;7809525;22;20321;-60
2021/12/17 13:08:35;;;;;;;9.80;3.80;;;;;;;;;;7836332;22;20065;-59
2021/12/17 13:11:44;;;;;;;8.02;3.25;;;;;;;;;;7836808;22;20330;-60
2021/12/17 13:14:48;;;;;;;12.52;3.55;;;;;;;;;;7848892;22;20103;-60
2021/12/17 13:24:42;;;;;;;7.93;3.28;;;;;;;;;;7835951;22;20034;-59
2021/12/17 13:27:51;;;;;;;10.13;3.20;;;;;;;;;;7836637;22;20022;-61
2021/12/17 13:30:56;;;;;;;7.97;3.45;;;;;;;;;;7850189;22;20015;-59
2021/12/17 13:34:02;;;;;;;7.65;3.45;;;;;;;;;;7841493;22;20337;-60
2021/12/17 13:37:07;;;;;;;10.55;3.40;;;;;;;;;;7836827;22;20019;-60
2021/12/17 13:40:11;;;;;;;11.27;3.80;;;;;;;;;;7809637;22;20019;-59
2021/12/17 13:43:26;;;;;;;8.98;3.55;;;;;;;;;;7810612;22;20497;-60
2021/12/17 13:46:35;;;;;;;9.43;3.50;;;;;;;;;;7811838;22;20022;-59
2021/12/17 13:49:38;;;;;;;6.60;3.58;;;;;;;;;;7811265;22;20019;-60
2021/12/17 13:52:46;;;;;;;10.30;3.97;;;;;;;;;;7799498;22;20104;-60
2021/12/17 13:55:50;;;;;;;12.40;5.93;;;;;;;;;;7812735;22;20015;-60
2021/12/17 13:59:00;;;;;;;8.57;3.53;;;;;;;;;;7825622;22;20015;-60
2021/12/17 14:02:09;;;;;;;9.65;3.75;;;;;;;;;;7839914;22;20016;-59
2021/12/17 14:05:16;;;;;;;11.30;3.42;;;;;;;;;;7839633;22;20077;-61
2021/12/17 14:08:20;;;;;;;13.32;4.18;;;;;;;;;;7839415;22;20388;-60
2021/12/17 14:11:25;;;;;;;9.80;3.78;;;;;;;;;;7796510;22;20336;-60
2021/12/17 14:14:56;;;;;;;9.20;3.67;;;;;;;;;;7811503;22;20020;-60
2021/12/17 14:18:01;;;;;;;9.38;3.60;;;;;;;;;;7811950;22;20094;-60
2021/12/17 14:21:05;;;;;;;7.40;3.45;;;;;;;;;;7838690;22;20620;-59
2021/12/17 14:24:09;;;;;;;6.82;3.28;;;;;;;;;;7825146;22;20314;-60
2021/12/17 14:27:12;;;;;;;10.60;4.15;;;;;;;;;;7826643;22;20023;-59
2021/12/17 14:30:15;;;;;;;10.50;3.63;;;;;;;;;;7799017;22;20019;-60
2021/12/17 14:33:20;;;;;;;11.23;4.07;;;;;;;;;;7824789;22;20449;-60
2021/12/17 14:36:27;;;;;;;8.50;3.42;;;;;;;;;;7838126;22;20372;-60
2021/12/17 14:39:34;;;;;;;10.45;3.72;;;;;;;;;;7839293;22;20019;-61
2021/12/17 14:42:38;;;;;;;8.90;3.80;;;;;;;;;;7835077;22;20015;-59
2021/12/17 14:45:44;;;;;;;9.52;3.45;;;;;;;;;;7825631;22;20476;-60
2021/12/17 14:49:03;;;;;;;7.18;3.33;;;;;;;;;;7811654;22;20022;-60
2021/12/17 15:05:48;;;;;;;10.02;4.18;;;;;;;;;;7789524;22;20023;-60
2021/12/17 15:08:53;;;;;;;9.43;3.85;;;;;;;;;;7835109;22;20061;-60
2021/12/17 15:11:59;;;;;;;13.55;3.70;;;;;;;;;;7821887;22;20072;-61
2021/12/17 15:15:04;;;;;;;10.10;3.80;;;;;;;;;;7808725;22;20188;-61
2021/12/17 15:18:14;;;;;;;8.70;3.42;;;;;;;;;;7798212;22;20366;-61
2021/12/17 15:21:18;;;;;;;9.80;3.75;;;;;;;;;;7837434;22;20334;-62
2021/12/17 15:24:21;;;;;;;11.45;3.45;;;;;;;;;;7825360;22;20034;-61
2021/12/17 15:27:24;;;;;;;9.45;3.55;;;;;;;;;;7825269;22;20429;-62
2021/12/17 15:30:28;;;;;;;9.38;3.72;;;;;;;;;;7825687;22;20027;-60
2021/12/17 15:33:31;;;;;;;10.65;4.10;;;;;;;;;;7824479;22;20020;-61
2021/12/17 15:36:37;;;;;;;8.07;3.37;;;;;;;;;;7838800;22;20327;-60
2021/12/17 15:39:40;;;;;;;7.60;3.67;;;;;;;;;;7798624;22;20772;-61
2021/12/17 15:42:44;;;;;;;10.98;4.30;;;;;;;;;;7823958;22;20026;-61
2021/12/17 15:45:47;;;;;;;12.48;4.25;;;;;;;;;;7798582;22;20019;-61
2021/12/17 15:48:50;;;;;;;14.10;4.53;;;;;;;;;;7798238;22;20015;-61
2021/12/17 15:51:55;;;;;;;8.82;4.28;;;;;;;;;;7824826;22;20019;-61
2021/12/17 15:54:58;;;;;;;39.83;5.78;;;;;;;;;;7824631;22;20015;-61
2021/12/17 15:58:02;;;;;;;6.72;3.45;;;;;;;;;;7825697;22;20023;-61
2021/12/17 16:01:07;;;;;;;9.48;3.88;;;;;;;;;;7837926;22;20357;-61
2021/12/17 16:04:13;;;;;;;11.30;4.82;;;;;;;;;;7796372;22;20042;-61
2021/12/17 16:07:20;;;;;;;14.23;4.03;;;;;;;;;;7810026;22;20019;-61
2021/12/17 16:11:10;;;;;;;12.73;3.85;;;;;;;;;;7797946;22;20065;-61
2021/12/17 16:21:03;;;;;;;8.85;3.72;;;;;;;;;;7809883;22;20026;-61
2021/12/17 16:24:07;;;;;;;7.38;4.25;;;;;;;;;;7837286;22;20114;-61
2021/12/17 16:27:12;;;;;;;11.90;3.80;;;;;;;;;;7837888;22;20468;-61
2021/12/17 16:30:16;;;;;;;12.73;5.13;;;;;;;;;;7796253;22;20023;-62
2021/12/17 16:33:19;;;;;;;11.15;4.05;;;;;;;;;;7797497;22;20028;-61
2021/12/17 16:36:22;;;;;;;11.90;4.40;;;;;;;;;;7822681;22;20022;-62
2021/12/17 16:39:26;;;;;;;7.53;3.90;;;;;;;;;;7823717;22;20024;-62
2021/12/17 16:42:32;;;;;;;12.52;5.05;;;;;;;;;;7832759;22;20376;-60
2021/12/17 16:45:41;;;;;;;10.15;4.15;;;;;;;;;;7834108;22;20023;-62
2021/12/17 16:48:45;;;;;;;12.27;4.28;;;;;;;;;;7806824;22;20436;-62
2021/12/17 16:51:49;;;;;;;14.63;4.18;;;;;;;;;;7819884;22;20345;-61
2021/12/17 16:54:53;;;;;;;9.45;3.70;;;;;;;;;;7794989;22;20019;-61
2021/12/17 16:57:57;;;;;;;11.73;4.15;;;;;;;;;;7795521;22;20023;-61
2021/12/17 17:01:05;;;;;;;10.38;3.70;;;;;;;;;;7837398;22;20097;-61
2021/12/17 17:04:09;;;;;;;10.82;4.05;;;;;;;;;;7824277;22;20026;-61
2021/12/17 17:07:13;;;;;;;10.00;3.55;;;;;;;;;;7797514;22;20381;-61
2021/12/17 17:10:20;;;;;;;10.63;4.10;;;;;;;;;;7838064;22;20326;-61
2021/12/17 17:13:23;;;;;;;10.40;3.80;;;;;;;;;;7808973;22;20093;-60
2021/12/17 17:16:27;;;;;;;14.02;4.15;;;;;;;;;;7824886;22;20450;-60
2021/12/17 17:19:29;;;;;;;12.45;4.18;;;;;;;;;;7799075;22;20412;-61
2021/12/17 17:22:32;;;;;;;11.95;4.20;;;;;;;;;;7826395;22;20022;-60
2021/12/17 17:25:37;;;;;;;10.88;4.05;;;;;;;;;;7799556;22;20019;-60
2021/12/17 17:28:43;;;;;;;9.55;4.20;;;;;;;;;;7827217;22;20030;-61
2021/12/17 17:31:45;;;;;;;9.52;4.35;;;;;;;;;;7840301;22;20026;-61
2021/12/17 17:34:49;;;;;;;10.88;4.25;;;;;;;;;;7825660;22;20073;-60
2021/12/17 17:37:51;;;;;;;8.80;3.90;;;;;;;;;;7827465;22;20033;-61
2021/12/17 17:40:56;;;;;;;11.82;4.30;;;;;;;;;;7827327;22;20015;-61
2021/12/17 17:43:59;;;;;;;13.02;4.82;;;;;;;;;;7797805;22;20019;-60
2021/12/17 17:47:02;;;;;;;12.13;4.63;;;;;;;;;;7797676;22;20019;-61
2021/12/17 17:50:05;;;;;;;9.15;4.40;;;;;;;;;;7797873;22;20015;-59
2021/12/17 17:53:09;;;;;;;16.17;4.82;;;;;;;;;;7825228;22;20019;-60
2021/12/17 17:56:13;;;;;;;10.38;4.47;;;;;;;;;;7824898;22;20089;-60
2021/12/17 17:59:17;;;;;;;11.57;4.93;;;;;;;;;;7825612;22;20019;-60
2021/12/17 18:02:19;;;;;;;13.45;4.72;;;;;;;;;;7798258;22;20026;-60
2021/12/17 18:05:23;;;;;;;8.75;4.32;;;;;;;;;;7824429;22;20084;-62
2021/12/17 18:08:26;;;;;;;11.65;4.72;;;;;;;;;;7771692;22;20449;-61
2021/12/17 18:11:30;;;;;;;12.60;4.97;;;;;;;;;;7825456;22;20046;-61
2021/12/17 18:14:33;;;;;;;10.35;4.65;;;;;;;;;;7797593;22;20015;-61
2021/12/17 18:17:36;;;;;;;12.65;5.32;;;;;;;;;;7824668;22;20027;-61
2021/12/17 18:20:39;;;;;;;14.38;4.95;;;;;;;;;;7824720;22;20015;-59
2021/12/17 18:23:45;;;;;;;14.20;5.22;;;;;;;;;;7824656;22;20465;-59
2021/12/17 18:26:49;;;;;;;17.02;5.97;;;;;;;;;;7823935;22;20445;-59
2021/12/17 18:29:52;;;;;;;14.40;5.82;;;;;;;;;;7825239;22;20020;-59
2021/12/17 18:32:56;;;;;;;10.95;4.65;;;;;;;;;;7797207;22;20019;-58
2021/12/17 18:35:59;;;;;;;14.00;5.65;;;;;;;;;;7822249;22;20015;-59
2021/12/17 18:39:02;;;;;;;17.33;5.43;;;;;;;;;;7824626;22;20422;-59
2021/12/17 18:45:24;;;;;;;12.55;5.50;;;;;;;;;;7833185;22;20049;-59
2021/12/17 18:48:29;;;;;;;10.85;4.97;;;;;;;;;;7792578;22;20026;-59
2021/12/17 18:51:32;;;;;;;11.02;5.78;;;;;;;;;;7793741;22;20023;-59
2021/12/17 18:54:35;;;;;;;12.32;5.13;;;;;;;;;;7821035;22;20588;-60
2021/12/17 18:57:39;;;;;;;13.13;5.80;;;;;;;;;;7823263;22;20026;-59
2021/12/17 19:00:44;;;;;;;12.25;5.38;;;;;;;;;;7796937;22;20023;-59
2021/12/17 19:03:47;;;;;;;13.18;5.68;;;;;;;;;;7823678;22;20019;-59
2021/12/17 19:06:52;;;;;;;15.05;6.32;;;;;;;;;;7796664;22;20012;-60
2021/12/17 19:09:55;;;;;;;12.57;5.35;;;;;;;;;;7796124;22;20346;-60
2021/12/17 19:12:59;;;;;;;15.02;5.70;;;;;;;;;;7823913;22;20023;-59
2021/12/17 19:16:04;;;;;;;12.55;5.45;;;;;;;;;;7824530;22;20023;-60
2021/12/17 19:19:12;;;;;;;14.43;5.38;;;;;;;;;;7795865;22;20030;-58
2021/12/17 19:22:25;;;;;;;11.77;5.93;;;;;;;;;;7808680;22;20386;-60
2021/12/17 19:25:31;;;;;;;12.05;5.93;;;;;;;;;;7809315;22;20011;-60
2021/12/17 19:28:35;;;;;;;13.35;5.47;;;;;;;;;;7837556;22;20097;-60
2021/12/17 19:31:39;;;;;;;15.98;7.22;;;;;;;;;;7796370;22;20023;-60
2021/12/17 19:34:42;;;;;;;16.65;6.25;;;;;;;;;;7796559;22;20063;-59
2021/12/17 19:37:45;;;;;;;16.33;7.15;;;;;;;;;;7824320;22;20442;-59
2021/12/17 19:40:48;;;;;;;15.77;5.63;;;;;;;;;;7795898;22;20019;-59
2021/12/17 19:43:52;;;;;;;12.93;5.35;;;;;;;;;;7796773;22;20027;-59
2021/12/17 19:50:25;;;;;;;10.07;5.17;;;;;;;;;;7801330;22;20524;-60
2021/12/17 19:53:27;;;;;;;14.75;5.22;;;;;;;;;;7795993;22;20042;-60
2021/12/17 19:56:31;;;;;;;12.82;4.95;;;;;;;;;;7824104;22;20015;-59
2021/12/17 19:59:35;;;;;;;15.23;5.38;;;;;;;;;;7824065;22;20042;-60
2021/12/17 20:02:42;;;;;;;13.23;5.15;;;;;;;;;;7823148;22;20015;-60
2021/12/17 20:05:46;;;;;;;11.57;5.35;;;;;;;;;;7836110;22;20375;-59
2021/12/17 20:08:50;;;;;;;10.80;4.82;;;;;;;;;;7823894;22;20020;-59
2021/12/17 20:11:53;;;;;;;14.15;5.28;;;;;;;;;;7823925;22;20015;-59
2021/12/17 20:14:57;;;;;;;12.05;5.20;;;;;;;;;;7823243;22;20023;-59
2021/12/17 20:18:00;;;;;;;11.85;5.38;;;;;;;;;;7823818;22;20485;-60
2021/12/17 20:21:03;;;;;;;10.77;4.80;;;;;;;;;;7796736;22;20026;-61
2021/12/17 20:24:07;;;;;;;9.30;4.90;;;;;;;;;;7795701;22;20035;-60
2021/12/17 20:27:10;;;;;;;12.23;5.15;;;;;;;;;;7823461;22;20384;-60
2021/12/17 20:30:17;;;;;;;13.77;5.32;;;;;;;;;;7823546;22;20022;-59
2021/12/17 20:33:20;;;;;;;13.35;5.93;;;;;;;;;;7832128;22;20022;-59
2021/12/17 20:36:23;;;;;;;13.60;6.78;;;;;;;;;;7822826;22;20099;-59
2021/12/17 20:39:29;;;;;;;10.00;4.87;;;;;;;;;;7823695;22;20016;-59
2021/12/17 20:42:47;;;;;;;10.63;5.32;;;;;;;;;;7796426;22;20042;-59
2021/12/17 20:45:55;;;;;;;12.88;5.10;;;;;;;;;;7835721;22;20065;-59
2021/12/17 20:48:58;;;;;;;12.68;5.68;;;;;;;;;;7796122;22;20450;-59
2021/12/17 20:52:01;;;;;;;10.43;5.00;;;;;;;;;;7821747;22;20011;-60
2021/12/17 20:55:04;;;;;;;17.90;6.03;;;;;;;;;;7798706;22;20019;-60
2021/12/17 20:58:08;;;;;;;15.63;5.53;;;;;;;;;;7797646;22;20015;-60
2021/12/17 21:01:15;;;;;;;11.80;4.90;;;;;;;;;;7838492;22;20025;-61
2021/12/17 21:04:19;;;;;;;13.38;5.15;;;;;;;;;;7798827;22;20012;-60
2021/12/17 21:07:22;;;;;;;13.23;6.10;;;;;;;;;;7825301;22;20018;-59
2021/12/17 21:10:28;;;;;;;12.52;5.03;;;;;;;;;;7838973;22;20019;-59
2021/12/17 21:13:31;;;;;;;12.07;4.70;;;;;;;;;;7825779;22;20042;-60
2021/12/17 21:16:39;;;;;;;10.25;4.90;;;;;;;;;;7838925;22;20327;-59
2021/12/17 21:19:42;;;;;;;12.50;5.03;;;;;;;;;;7797725;22;20019;-60
2021/12/17 21:22:45;;;;;;;15.20;5.07;;;;;;;;;;7825980;22;20023;-60
2021/12/17 21:25:49;;;;;;;14.05;5.80;;;;;;;;;;7798626;22;20102;-59
2021/12/17 21:28:52;;;;;;;8.93;4.80;;;;;;;;;;7825057;22;20323;-59
2021/12/17 21:31:57;;;;;;;11.10;4.90;;;;;;;;;;7798443;22;20088;-60
2021/12/17 21:35:05;;;;;;;10.60;5.43;;;;;;;;;;7825735;22;20019;-60
2021/12/17 21:38:08;;;;;;;13.40;5.65;;;;;;;;;;7838581;22;20061;-60
2021/12/17 21:41:11;;;;;;;13.57;5.63;;;;;;;;;;7825106;22;20019;-60
2021/12/17 21:44:14;;;;;;;13.82;5.90;;;;;;;;;;7797662;22;20794;-59
2021/12/17 21:47:19;;;;;;;11.73;5.20;;;;;;;;;;7825737;22;20213;-60
2021/12/17 21:50:24;;;;;;;12.25;5.13;;;;;;;;;;7824467;22;20015;-60
2021/12/17 21:53:29;;;;;;;12.50;5.20;;;;;;;;;;7838841;22;20015;-60
2021/12/17 21:56:35;;;;;;;10.88;4.65;;;;;;;;;;7838947;22;20015;-59
2021/12/17 21:59:38;;;;;;;11.38;5.10;;;;;;;;;;7824701;22;20065;-60
2021/12/17 22:02:42;;;;;;;13.82;5.65;;;;;;;;;;7824101;22;20022;-60